Portada
METAR-TAF:

METAR-TAF

Aeroports :

Kagoshima, Japó

latitud: 31-48N, longitud: 130-43E, altitud: 272 m

Observació

L'informe es va fer fa 26 minuts, a les 10:00 UTC
Vent 5 kt del Oest/Sud-Oest
Temperatura 18°C
Humitat 52%
Pressió 1013 hPa
Visibilitat 10 km o més
Escasses núvols a una alçada de 3000 ft

METAR: RJFK 181000Z 24005KT 9999 FEW030 18/08 Q1013 RMK 1CU030 A2993 VOLCANIC ASH CLOUD S

Hora: 19:26 (10:26 UTC)

Pronòstic

L'informe es va fer fa 5 hores i 11 minuts, a les 05:15 UTC
Pronòstic vàlid del 18 a les 06 UTC al 19 a les 12 UTC
Vent 9 kt del Sud-Oest
Visibilitat 10 km o més
Escasses núvols a una alçada de 3000 ft
Evolucionant progressivament
l' 18 a les 07 UTC al 18 a les 09 UTC
Vent 6 kt del Nord-Oest

TAF: RJFK 180515Z 1806/1912 22009KT 9999 FEW030 BECMG 1807/1809 32006KT

Observacions i pronòstics meteorològics de més de 4000 aeroports (METAR i TAF).

Les estacions disponibles són els punts grocs i vermells al mapa.

Posi el ratolí al punt desitjat per veure el nom de l'estació.

Feu clic per veure les observacions i els pronòstics meteorològics.

Per canviar el mapa: feu clic els botons verds amb una creu de color negre per apropar; al botó verd amb un guió per allunyar la imatge; o en les fletxes verdes per a mapes adjacents.


METAR-TAF: